sensor_id;sensor_type;location;lat;lon;timestamp;P1;durP1;ratioP1;P2;durP2;ratioP2
21114;SDS011;10715;48.546;9.896;2023-02-14T00:01:43;55.70;;;20.60;;
21114;SDS011;10715;48.546;9.896;2023-02-14T00:04:10;59.83;;;26.00;;
21114;SDS011;10715;48.546;9.896;2023-02-14T00:06:36;63.17;;;22.40;;
21114;SDS011;10715;48.546;9.896;2023-02-14T00:09:36;47.73;;;20.10;;
21114;SDS011;10715;48.546;9.896;2023-02-14T00:11:55;48.80;;;19.17;;
21114;SDS011;10715;48.546;9.896;2023-02-14T00:14:20;63.40;;;21.30;;
21114;SDS011;10715;48.546;9.896;2023-02-14T00:17:04;57.27;;;22.80;;
21114;SDS011;10715;48.546;9.896;2023-02-14T00:19:30;59.93;;;23.07;;
21114;SDS011;10715;48.546;9.896;2023-02-14T00:21:56;56.10;;;21.07;;
21114;SDS011;10715;48.546;9.896;2023-02-14T00:24:22;54.57;;;21.33;;
21114;SDS011;10715;48.546;9.896;2023-02-14T00:26:49;54.20;;;21.10;;
21114;SDS011;10715;48.546;9.896;2023-02-14T00:29:17;64.07;;;21.20;;
21114;SDS011;10715;48.546;9.896;2023-02-14T00:31:47;46.77;;;20.20;;
21114;SDS011;10715;48.546;9.896;2023-02-14T00:34:14;63.07;;;22.40;;
21114;SDS011;10715;48.546;9.896;2023-02-14T00:36:41;44.90;;;21.13;;
21114;SDS011;10715;48.546;9.896;2023-02-14T00:39:08;65.03;;;21.77;;
21114;SDS011;10715;48.546;9.896;2023-02-14T00:41:35;53.80;;;21.73;;
21114;SDS011;10715;48.546;9.896;2023-02-14T00:44:01;69.43;;;21.17;;
21114;SDS011;10715;48.546;9.896;2023-02-14T00:46:27;83.27;;;24.63;;
21114;SDS011;10715;48.546;9.896;2023-02-14T00:48:53;76.97;;;20.53;;
21114;SDS011;10715;48.546;9.896;2023-02-14T00:51:19;46.90;;;20.10;;
21114;SDS011;10715;48.546;9.896;2023-02-14T00:53:46;53.77;;;22.10;;
21114;SDS011;10715;48.546;9.896;2023-02-14T00:56:13;59.83;;;22.47;;
21114;SDS011;10715;48.546;9.896;2023-02-14T00:58:39;53.97;;;21.43;;
21114;SDS011;10715;48.546;9.896;2023-02-14T01:01:06;55.63;;;21.23;;
21114;SDS011;10715;48.546;9.896;2023-02-14T01:03:32;47.43;;;19.60;;
21114;SDS011;10715;48.546;9.896;2023-02-14T01:05:58;66.45;;;20.10;;
21114;SDS011;10715;48.546;9.896;2023-02-14T01:08:24;66.83;;;19.30;;
21114;SDS011;10715;48.546;9.896;2023-02-14T01:10:50;49.17;;;16.97;;
21114;SDS011;10715;48.546;9.896;2023-02-14T01:13:16;46.93;;;20.03;;
21114;SDS011;10715;48.546;9.896;2023-02-14T01:15:44;46.27;;;18.30;;
21114;SDS011;10715;48.546;9.896;2023-02-14T01:18:11;56.17;;;19.43;;
21114;SDS011;10715;48.546;9.896;2023-02-14T01:20:38;42.10;;;19.20;;
21114;SDS011;10715;48.546;9.896;2023-02-14T01:23:04;60.37;;;21.70;;
21114;SDS011;10715;48.546;9.896;2023-02-14T01:25:30;45.80;;;19.03;;
21114;SDS011;10715;48.546;9.896;2023-02-14T01:27:56;44.03;;;19.57;;
21114;SDS011;10715;48.546;9.896;2023-02-14T01:30:22;52.60;;;18.70;;
21114;SDS011;10715;48.546;9.896;2023-02-14T01:32:48;65.80;;;20.47;;
21114;SDS011;10715;48.546;9.896;2023-02-14T01:35:13;47.93;;;18.80;;
21114;SDS011;10715;48.546;9.896;2023-02-14T01:37:39;70.50;;;20.83;;
21114;SDS011;10715;48.546;9.896;2023-02-14T01:40:06;41.57;;;18.77;;
21114;SDS011;10715;48.546;9.896;2023-02-14T01:42:34;51.70;;;18.57;;
21114;SDS011;10715;48.546;9.896;2023-02-14T01:45:19;44.40;;;19.77;;
21114;SDS011;10715;48.546;9.896;2023-02-14T01:47:49;37.67;;;17.33;;
21114;SDS011;10715;48.546;9.896;2023-02-14T01:52:48;48.17;;;18.33;;
21114;SDS011;10715;48.546;9.896;2023-02-14T01:55:24;35.13;;;16.13;;
21114;SDS011;10715;48.546;9.896;2023-02-14T01:57:58;41.63;;;18.77;;
21114;SDS011;10715;48.546;9.896;2023-02-14T02:00:29;37.33;;;17.37;;
21114;SDS011;10715;48.546;9.896;2023-02-14T02:03:13;35.20;;;17.90;;
21114;SDS011;10715;48.546;9.896;2023-02-14T02:05:43;57.73;;;18.57;;
21114;SDS011;10715;48.546;9.896;2023-02-14T02:08:12;40.40;;;16.77;;
21114;SDS011;10715;48.546;9.896;2023-02-14T02:10:38;56.63;;;20.10;;
21114;SDS011;10715;48.546;9.896;2023-02-14T02:13:06;42.83;;;18.60;;
21114;SDS011;10715;48.546;9.896;2023-02-14T02:15:34;79.10;;;17.90;;
21114;SDS011;10715;48.546;9.896;2023-02-14T02:18:18;46.13;;;15.70;;
21114;SDS011;10715;48.546;9.896;2023-02-14T02:23:57;52.03;;;18.77;;
21114;SDS011;10715;48.546;9.896;2023-02-14T02:32:37;34.67;;;17.47;;
21114;SDS011;10715;48.546;9.896;2023-02-14T02:49:02;40.50;;;15.43;;
21114;SDS011;10715;48.546;9.896;2023-02-14T02:52:11;45.60;;;20.70;;
21114;SDS011;10715;48.546;9.896;2023-02-14T02:55:24;48.53;;;15.07;;
21114;SDS011;10715;48.546;9.896;2023-02-14T02:58:14;29.47;;;13.87;;
21114;SDS011;10715;48.546;9.896;2023-02-14T03:00:42;46.67;;;17.10;;
21114;SDS011;10715;48.546;9.896;2023-02-14T03:03:08;36.87;;;16.70;;
21114;SDS011;10715;48.546;9.896;2023-02-14T03:05:53;39.40;;;17.47;;
21114;SDS011;10715;48.546;9.896;2023-02-14T03:08:19;42.93;;;16.93;;
21114;SDS011;10715;48.546;9.896;2023-02-14T03:10:45;46.17;;;17.20;;
21114;SDS011;10715;48.546;9.896;2023-02-14T03:21:12;44.47;;;18.73;;
21114;SDS011;10715;48.546;9.896;2023-02-14T03:23:55;44.70;;;17.43;;
21114;SDS011;10715;48.546;9.896;2023-02-14T03:26:42;45.47;;;19.87;;
21114;SDS011;10715;48.546;9.896;2023-02-14T03:29:36;53.90;;;18.40;;
21114;SDS011;10715;48.546;9.896;2023-02-14T03:32:17;47.17;;;16.80;;
21114;SDS011;10715;48.546;9.896;2023-02-14T03:42:41;64.90;;;23.60;;
21114;SDS011;10715;48.546;9.896;2023-02-14T03:45:12;56.73;;;20.03;;
21114;SDS011;10715;48.546;9.896;2023-02-14T03:47:44;37.30;;;18.93;;
21114;SDS011;10715;48.546;9.896;2023-02-14T03:50:13;59.27;;;18.03;;
21114;SDS011;10715;48.546;9.896;2023-02-14T03:52:42;71.67;;;18.70;;
21114;SDS011;10715;48.546;9.896;2023-02-14T03:55:10;56.27;;;21.50;;
21114;SDS011;10715;48.546;9.896;2023-02-14T04:00:27;50.27;;;20.00;;
21114;SDS011;10715;48.546;9.896;2023-02-14T04:02:58;54.70;;;20.57;;
21114;SDS011;10715;48.546;9.896;2023-02-14T04:05:28;36.03;;;17.10;;
21114;SDS011;10715;48.546;9.896;2023-02-14T04:07:55;46.50;;;18.47;;
21114;SDS011;10715;48.546;9.896;2023-02-14T04:10:22;44.73;;;20.70;;
21114;SDS011;10715;48.546;9.896;2023-02-14T04:12:50;42.50;;;17.27;;
21114;SDS011;10715;48.546;9.896;2023-02-14T04:15:16;51.20;;;18.77;;
21114;SDS011;10715;48.546;9.896;2023-02-14T04:17:42;41.70;;;17.47;;
21114;SDS011;10715;48.546;9.896;2023-02-14T04:20:26;41.03;;;17.60;;
21114;SDS011;10715;48.546;9.896;2023-02-14T04:22:53;57.90;;;20.10;;
21114;SDS011;10715;48.546;9.896;2023-02-14T04:25:21;38.57;;;18.03;;
21114;SDS011;10715;48.546;9.896;2023-02-14T04:27:46;45.47;;;17.93;;
21114;SDS011;10715;48.546;9.896;2023-02-14T04:30:13;38.97;;;16.27;;
21114;SDS011;10715;48.546;9.896;2023-02-14T04:32:39;42.00;;;15.57;;
21114;SDS011;10715;48.546;9.896;2023-02-14T04:35:05;56.57;;;19.70;;
21114;SDS011;10715;48.546;9.896;2023-02-14T04:37:32;44.23;;;18.97;;
21114;SDS011;10715;48.546;9.896;2023-02-14T04:39:57;37.40;;;17.00;;
21114;SDS011;10715;48.546;9.896;2023-02-14T04:42:23;52.60;;;19.47;;
21114;SDS011;10715;48.546;9.896;2023-02-14T04:44:49;63.23;;;18.80;;
21114;SDS011;10715;48.546;9.896;2023-02-14T04:47:15;52.43;;;19.30;;
21114;SDS011;10715;48.546;9.896;2023-02-14T04:49:41;62.07;;;18.20;;
21114;SDS011;10715;48.546;9.896;2023-02-14T04:52:07;57.03;;;21.57;;
21114;SDS011;10715;48.546;9.896;2023-02-14T04:54:32;54.57;;;19.70;;
21114;SDS011;10715;48.546;9.896;2023-02-14T04:56:58;45.43;;;19.60;;
21114;SDS011;10715;48.546;9.896;2023-02-14T04:59:24;42.03;;;18.53;;
21114;SDS011;10715;48.546;9.896;2023-02-14T05:01:50;44.43;;;18.53;;
21114;SDS011;10715;48.546;9.896;2023-02-14T05:04:16;43.33;;;16.60;;
21114;SDS011;10715;48.546;9.896;2023-02-14T05:06:42;69.90;;;20.23;;
21114;SDS011;10715;48.546;9.896;2023-02-14T05:09:07;69.07;;;19.53;;
21114;SDS011;10715;48.546;9.896;2023-02-14T05:11:33;47.20;;;19.47;;
21114;SDS011;10715;48.546;9.896;2023-02-14T05:13:59;50.07;;;20.70;;
21114;SDS011;10715;48.546;9.896;2023-02-14T05:16:25;46.70;;;18.67;;
21114;SDS011;10715;48.546;9.896;2023-02-14T05:18:50;50.53;;;16.40;;
21114;SDS011;10715;48.546;9.896;2023-02-14T05:21:16;49.17;;;17.10;;
21114;SDS011;10715;48.546;9.896;2023-02-14T05:23:42;33.60;;;15.57;;
21114;SDS011;10715;48.546;9.896;2023-02-14T05:26:08;34.60;;;16.63;;
21114;SDS011;10715;48.546;9.896;2023-02-14T05:28:33;37.87;;;15.60;;
21114;SDS011;10715;48.546;9.896;2023-02-14T05:30:59;32.23;;;18.10;;
21114;SDS011;10715;48.546;9.896;2023-02-14T05:33:25;40.37;;;16.77;;
21114;SDS011;10715;48.546;9.896;2023-02-14T05:35:51;35.00;;;16.80;;
21114;SDS011;10715;48.546;9.896;2023-02-14T05:38:17;31.47;;;16.60;;
21114;SDS011;10715;48.546;9.896;2023-02-14T05:40:43;57.10;;;18.50;;
21114;SDS011;10715;48.546;9.896;2023-02-14T05:43:08;63.17;;;19.90;;
21114;SDS011;10715;48.546;9.896;2023-02-14T05:45:34;37.07;;;16.57;;
21114;SDS011;10715;48.546;9.896;2023-02-14T05:48:00;28.60;;;16.40;;
21114;SDS011;10715;48.546;9.896;2023-02-14T05:50:26;59.80;;;20.57;;
21114;SDS011;10715;48.546;9.896;2023-02-14T05:52:52;46.53;;;18.67;;
21114;SDS011;10715;48.546;9.896;2023-02-14T05:55:18;50.47;;;17.70;;
21114;SDS011;10715;48.546;9.896;2023-02-14T05:57:43;37.90;;;16.30;;
21114;SDS011;10715;48.546;9.896;2023-02-14T06:00:09;60.07;;;19.53;;
21114;SDS011;10715;48.546;9.896;2023-02-14T06:02:35;45.37;;;16.77;;
21114;SDS011;10715;48.546;9.896;2023-02-14T06:05:01;43.97;;;16.63;;
21114;SDS011;10715;48.546;9.896;2023-02-14T06:07:27;35.57;;;15.40;;
21114;SDS011;10715;48.546;9.896;2023-02-14T06:09:52;39.17;;;18.23;;
21114;SDS011;10715;48.546;9.896;2023-02-14T06:12:18;44.83;;;17.80;;
21114;SDS011;10715;48.546;9.896;2023-02-14T06:14:43;36.57;;;17.10;;
21114;SDS011;10715;48.546;9.896;2023-02-14T06:17:09;44.23;;;16.47;;
21114;SDS011;10715;48.546;9.896;2023-02-14T06:19:35;33.07;;;16.63;;
21114;SDS011;10715;48.546;9.896;2023-02-14T06:22:01;36.87;;;16.50;;
21114;SDS011;10715;48.546;9.896;2023-02-14T06:24:28;34.93;;;14.10;;
21114;SDS011;10715;48.546;9.896;2023-02-14T06:26:53;47.80;;;19.97;;
21114;SDS011;10715;48.546;9.896;2023-02-14T06:29:19;64.07;;;17.60;;
21114;SDS011;10715;48.546;9.896;2023-02-14T06:31:45;38.83;;;15.70;;
21114;SDS011;10715;48.546;9.896;2023-02-14T06:34:10;31.73;;;16.23;;
21114;SDS011;10715;48.546;9.896;2023-02-14T06:36:36;36.23;;;17.03;;
21114;SDS011;10715;48.546;9.896;2023-02-14T06:39:02;39.37;;;15.83;;
21114;SDS011;10715;48.546;9.896;2023-02-14T06:41:28;44.97;;;17.77;;
21114;SDS011;10715;48.546;9.896;2023-02-14T06:43:54;31.23;;;14.90;;
21114;SDS011;10715;48.546;9.896;2023-02-14T06:46:20;43.17;;;17.63;;
21114;SDS011;10715;48.546;9.896;2023-02-14T06:48:46;30.60;;;15.17;;
21114;SDS011;10715;48.546;9.896;2023-02-14T06:51:11;43.90;;;13.50;;
21114;SDS011;10715;48.546;9.896;2023-02-14T06:53:37;46.00;;;16.77;;
21114;SDS011;10715;48.546;9.896;2023-02-14T06:56:03;36.57;;;14.10;;
21114;SDS011;10715;48.546;9.896;2023-02-14T06:58:29;41.30;;;17.33;;
21114;SDS011;10715;48.546;9.896;2023-02-14T07:00:55;45.03;;;16.97;;
21114;SDS011;10715;48.546;9.896;2023-02-14T07:03:23;33.63;;;15.30;;
21114;SDS011;10715;48.546;9.896;2023-02-14T07:05:49;41.97;;;16.00;;
21114;SDS011;10715;48.546;9.896;2023-02-14T07:08:15;33.13;;;17.87;;
21114;SDS011;10715;48.546;9.896;2023-02-14T07:10:41;37.97;;;16.57;;
21114;SDS011;10715;48.546;9.896;2023-02-14T07:13:07;36.23;;;14.17;;
21114;SDS011;10715;48.546;9.896;2023-02-14T07:15:32;41.87;;;16.80;;
21114;SDS011;10715;48.546;9.896;2023-02-14T07:17:58;36.00;;;16.67;;
21114;SDS011;10715;48.546;9.896;2023-02-14T07:20:24;40.90;;;16.83;;
21114;SDS011;10715;48.546;9.896;2023-02-14T07:22:51;36.17;;;15.10;;
21114;SDS011;10715;48.546;9.896;2023-02-14T07:25:17;31.40;;;14.60;;
21114;SDS011;10715;48.546;9.896;2023-02-14T07:27:42;30.07;;;15.00;;
21114;SDS011;10715;48.546;9.896;2023-02-14T07:30:09;28.97;;;15.00;;
21114;SDS011;10715;48.546;9.896;2023-02-14T07:32:36;45.70;;;16.10;;
21114;SDS011;10715;48.546;9.896;2023-02-14T07:35:02;35.17;;;15.17;;
21114;SDS011;10715;48.546;9.896;2023-02-14T07:37:28;37.60;;;16.10;;
21114;SDS011;10715;48.546;9.896;2023-02-14T07:39:55;45.90;;;14.90;;
21114;SDS011;10715;48.546;9.896;2023-02-14T07:42:21;27.73;;;14.67;;
21114;SDS011;10715;48.546;9.896;2023-02-14T07:44:47;46.77;;;16.43;;
21114;SDS011;10715;48.546;9.896;2023-02-14T07:47:12;27.90;;;14.07;;
21114;SDS011;10715;48.546;9.896;2023-02-14T07:49:38;35.07;;;15.70;;
21114;SDS011;10715;48.546;9.896;2023-02-14T07:52:04;41.57;;;15.47;;
21114;SDS011;10715;48.546;9.896;2023-02-14T07:54:29;29.27;;;14.20;;
21114;SDS011;10715;48.546;9.896;2023-02-14T07:56:55;27.60;;;13.13;;
21114;SDS011;10715;48.546;9.896;2023-02-14T07:59:21;38.17;;;16.17;;
21114;SDS011;10715;48.546;9.896;2023-02-14T08:01:47;26.13;;;14.23;;
21114;SDS011;10715;48.546;9.896;2023-02-14T08:04:12;35.43;;;17.70;;
21114;SDS011;10715;48.546;9.896;2023-02-14T08:06:41;33.77;;;15.03;;
21114;SDS011;10715;48.546;9.896;2023-02-14T08:09:07;41.73;;;14.90;;
21114;SDS011;10715;48.546;9.896;2023-02-14T08:11:48;32.03;;;14.60;;
21114;SDS011;10715;48.546;9.896;2023-02-14T08:14:50;32.33;;;14.43;;
21114;SDS011;10715;48.546;9.896;2023-02-14T08:17:16;28.83;;;14.40;;
21114;SDS011;10715;48.546;9.896;2023-02-14T08:19:41;26.67;;;13.90;;
21114;SDS011;10715;48.546;9.896;2023-02-14T08:22:07;30.20;;;13.87;;
21114;SDS011;10715;48.546;9.896;2023-02-14T08:24:33;30.53;;;13.20;;
21114;SDS011;10715;48.546;9.896;2023-02-14T08:26:58;32.10;;;15.50;;
21114;SDS011;10715;48.546;9.896;2023-02-14T08:29:24;30.83;;;13.63;;
21114;SDS011;10715;48.546;9.896;2023-02-14T08:31:50;27.97;;;13.07;;
21114;SDS011;10715;48.546;9.896;2023-02-14T08:34:16;40.40;;;15.50;;
21114;SDS011;10715;48.546;9.896;2023-02-14T08:36:42;33.73;;;14.47;;
21114;SDS011;10715;48.546;9.896;2023-02-14T08:39:08;26.70;;;13.77;;
21114;SDS011;10715;48.546;9.896;2023-02-14T08:41:34;30.00;;;15.50;;
21114;SDS011;10715;48.546;9.896;2023-02-14T08:44:00;40.60;;;14.83;;
21114;SDS011;10715;48.546;9.896;2023-02-14T08:46:26;36.47;;;15.70;;
21114;SDS011;10715;48.546;9.896;2023-02-14T08:48:52;25.33;;;12.43;;
21114;SDS011;10715;48.546;9.896;2023-02-14T08:51:18;36.63;;;14.87;;
21114;SDS011;10715;48.546;9.896;2023-02-14T08:53:48;40.47;;;16.00;;
21114;SDS011;10715;48.546;9.896;2023-02-14T08:56:17;35.97;;;16.57;;
21114;SDS011;10715;48.546;9.896;2023-02-14T08:58:45;37.97;;;16.00;;
21114;SDS011;10715;48.546;9.896;2023-02-14T09:01:12;41.03;;;15.43;;
21114;SDS011;10715;48.546;9.896;2023-02-14T09:03:39;37.30;;;17.17;;
21114;SDS011;10715;48.546;9.896;2023-02-14T09:06:06;39.80;;;15.27;;
21114;SDS011;10715;48.546;9.896;2023-02-14T09:08:34;33.47;;;15.47;;
21114;SDS011;10715;48.546;9.896;2023-02-14T09:11:07;34.50;;;15.33;;
21114;SDS011;10715;48.546;9.896;2023-02-14T09:13:38;35.93;;;15.60;;
21114;SDS011;10715;48.546;9.896;2023-02-14T09:16:05;36.50;;;14.83;;
21114;SDS011;10715;48.546;9.896;2023-02-14T09:18:32;38.40;;;16.20;;
21114;SDS011;10715;48.546;9.896;2023-02-14T09:20:58;28.17;;;12.93;;
21114;SDS011;10715;48.546;9.896;2023-02-14T09:23:24;30.50;;;15.20;;
21114;SDS011;10715;48.546;9.896;2023-02-14T09:25:50;34.83;;;15.90;;
21114;SDS011;10715;48.546;9.896;2023-02-14T09:28:16;22.70;;;14.10;;
21114;SDS011;10715;48.546;9.896;2023-02-14T09:30:42;30.80;;;16.10;;
21114;SDS011;10715;48.546;9.896;2023-02-14T09:33:08;32.43;;;13.63;;
21114;SDS011;10715;48.546;9.896;2023-02-14T09:35:34;29.07;;;14.00;;
21114;SDS011;10715;48.546;9.896;2023-02-14T09:38:00;43.97;;;16.30;;
21114;SDS011;10715;48.546;9.896;2023-02-14T09:40:31;26.77;;;13.63;;
21114;SDS011;10715;48.546;9.896;2023-02-14T09:45:29;30.03;;;13.80;;
21114;SDS011;10715;48.546;9.896;2023-02-14T09:50:42;33.93;;;17.20;;
21114;SDS011;10715;48.546;9.896;2023-02-14T09:56:00;33.07;;;16.67;;
21114;SDS011;10715;48.546;9.896;2023-02-14T10:01:11;30.60;;;14.77;;
21114;SDS011;10715;48.546;9.896;2023-02-14T10:11:46;31.07;;;14.60;;
21114;SDS011;10715;48.546;9.896;2023-02-14T10:14:22;30.33;;;16.20;;
21114;SDS011;10715;48.546;9.896;2023-02-14T10:16:58;31.73;;;15.87;;
21114;SDS011;10715;48.546;9.896;2023-02-14T10:19:37;32.83;;;15.33;;
21114;SDS011;10715;48.546;9.896;2023-02-14T10:22:14;37.37;;;14.40;;
21114;SDS011;10715;48.546;9.896;2023-02-14T10:30:16;29.63;;;16.70;;
21114;SDS011;10715;48.546;9.896;2023-02-14T10:35:43;43.20;;;18.20;;
21114;SDS011;10715;48.546;9.896;2023-02-14T10:44:18;34.30;;;17.00;;
21114;SDS011;10715;48.546;9.896;2023-02-14T10:49:46;43.23;;;17.57;;
21114;SDS011;10715;48.546;9.896;2023-02-14T10:57:44;44.57;;;20.43;;
21114;SDS011;10715;48.546;9.896;2023-02-14T11:00:22;45.40;;;18.20;;
21114;SDS011;10715;48.546;9.896;2023-02-14T11:02:52;45.97;;;19.07;;
21114;SDS011;10715;48.546;9.896;2023-02-14T11:05:41;46.30;;;19.13;;
21114;SDS011;10715;48.546;9.896;2023-02-14T11:08:32;45.07;;;19.60;;
21114;SDS011;10715;48.546;9.896;2023-02-14T11:11:02;47.20;;;20.53;;
21114;SDS011;10715;48.546;9.896;2023-02-14T11:13:38;41.63;;;19.87;;
21114;SDS011;10715;48.546;9.896;2023-02-14T11:16:06;42.23;;;18.17;;
21114;SDS011;10715;48.546;9.896;2023-02-14T11:18:34;47.03;;;19.83;;
21114;SDS011;10715;48.546;9.896;2023-02-14T11:21:04;46.40;;;20.00;;
21114;SDS011;10715;48.546;9.896;2023-02-14T11:23:33;42.70;;;18.97;;
21114;SDS011;10715;48.546;9.896;2023-02-14T11:26:02;44.30;;;20.87;;
21114;SDS011;10715;48.546;9.896;2023-02-14T11:28:31;47.83;;;20.60;;
21114;SDS011;10715;48.546;9.896;2023-02-14T11:30:59;47.00;;;18.57;;
21114;SDS011;10715;48.546;9.896;2023-02-14T11:35:59;43.83;;;21.40;;
21114;SDS011;10715;48.546;9.896;2023-02-14T11:38:32;46.43;;;19.53;;
21114;SDS011;10715;48.546;9.896;2023-02-14T11:41:01;41.20;;;18.43;;
21114;SDS011;10715;48.546;9.896;2023-02-14T11:43:30;47.23;;;21.17;;
21114;SDS011;10715;48.546;9.896;2023-02-14T11:46:11;43.73;;;21.40;;
21114;SDS011;10715;48.546;9.896;2023-02-14T11:48:59;46.10;;;19.37;;
21114;SDS011;10715;48.546;9.896;2023-02-14T11:51:32;37.17;;;18.47;;
21114;SDS011;10715;48.546;9.896;2023-02-14T11:54:05;41.73;;;20.60;;
21114;SDS011;10715;48.546;9.896;2023-02-14T11:56:55;40.30;;;18.70;;
21114;SDS011;10715;48.546;9.896;2023-02-14T11:59:46;49.93;;;21.83;;
21114;SDS011;10715;48.546;9.896;2023-02-14T12:05:00;43.63;;;20.57;;
21114;SDS011;10715;48.546;9.896;2023-02-14T12:07:52;50.90;;;18.60;;
21114;SDS011;10715;48.546;9.896;2023-02-14T12:10:21;43.80;;;20.73;;
21114;SDS011;10715;48.546;9.896;2023-02-14T12:12:55;47.93;;;20.87;;
21114;SDS011;10715;48.546;9.896;2023-02-14T12:26:16;50.07;;;22.87;;
21114;SDS011;10715;48.546;9.896;2023-02-14T12:34:49;48.37;;;17.67;;
21114;SDS011;10715;48.546;9.896;2023-02-14T12:42:51;48.43;;;22.90;;
21114;SDS011;10715;48.546;9.896;2023-02-14T12:45:29;44.67;;;21.20;;
21114;SDS011;10715;48.546;9.896;2023-02-14T13:06:54;45.33;;;20.63;;
21114;SDS011;10715;48.546;9.896;2023-02-14T13:12:33;54.53;;;21.67;;
21114;SDS011;10715;48.546;9.896;2023-02-14T13:20:43;55.43;;;22.97;;
21114;SDS011;10715;48.546;9.896;2023-02-14T13:23:17;62.17;;;25.07;;
21114;SDS011;10715;48.546;9.896;2023-02-14T13:26:09;52.07;;;22.70;;
21114;SDS011;10715;48.546;9.896;2023-02-14T13:31:34;97.80;;;41.00;;
21114;SDS011;10715;48.546;9.896;2023-02-14T13:36:30;54.40;;;22.50;;
21114;SDS011;10715;48.546;9.896;2023-02-14T13:38:57;61.90;;;23.13;;
21114;SDS011;10715;48.546;9.896;2023-02-14T13:41:25;50.07;;;21.03;;
21114;SDS011;10715;48.546;9.896;2023-02-14T13:43:58;52.13;;;19.63;;
21114;SDS011;10715;48.546;9.896;2023-02-14T13:54:38;43.40;;;21.10;;
21114;SDS011;10715;48.546;9.896;2023-02-14T13:57:31;57.40;;;26.43;;
21114;SDS011;10715;48.546;9.896;2023-02-14T14:02:48;49.03;;;21.40;;
21114;SDS011;10715;48.546;9.896;2023-02-14T14:16:55;45.10;;;20.07;;
21114;SDS011;10715;48.546;9.896;2023-02-14T14:22:03;49.50;;;18.47;;
21114;SDS011;10715;48.546;9.896;2023-02-14T14:24:34;54.13;;;21.33;;
21114;SDS011;10715;48.546;9.896;2023-02-14T14:27:28;41.73;;;21.67;;
21114;SDS011;10715;48.546;9.896;2023-02-14T14:30:04;59.87;;;22.90;;
21114;SDS011;10715;48.546;9.896;2023-02-14T14:32:39;54.60;;;21.30;;
21114;SDS011;10715;48.546;9.896;2023-02-14T14:37:51;57.50;;;22.37;;
21114;SDS011;10715;48.546;9.896;2023-02-14T14:43:11;58.07;;;26.10;;
21114;SDS011;10715;48.546;9.896;2023-02-14T14:45:47;53.97;;;24.93;;
21114;SDS011;10715;48.546;9.896;2023-02-14T14:48:16;45.00;;;21.47;;
21114;SDS011;10715;48.546;9.896;2023-02-14T14:51:02;54.47;;;22.43;;
21114;SDS011;10715;48.546;9.896;2023-02-14T14:56:27;47.40;;;23.60;;
21114;SDS011;10715;48.546;9.896;2023-02-14T14:58:56;54.70;;;24.57;;
21114;SDS011;10715;48.546;9.896;2023-02-14T15:01:30;51.70;;;21.73;;
21114;SDS011;10715;48.546;9.896;2023-02-14T15:06:41;56.37;;;23.70;;
21114;SDS011;10715;48.546;9.896;2023-02-14T15:09:14;60.27;;;22.67;;
21114;SDS011;10715;48.546;9.896;2023-02-14T15:11:45;42.47;;;21.70;;
21114;SDS011;10715;48.546;9.896;2023-02-14T15:14:31;53.53;;;23.67;;
21114;SDS011;10715;48.546;9.896;2023-02-14T15:17:05;54.30;;;23.60;;
21114;SDS011;10715;48.546;9.896;2023-02-14T15:19:44;55.27;;;20.33;;
21114;SDS011;10715;48.546;9.896;2023-02-14T15:24:59;48.70;;;22.40;;
21114;SDS011;10715;48.546;9.896;2023-02-14T15:27:25;51.97;;;22.90;;
21114;SDS011;10715;48.546;9.896;2023-02-14T15:29:53;45.03;;;21.10;;
21114;SDS011;10715;48.546;9.896;2023-02-14T15:32:21;58.57;;;28.93;;
21114;SDS011;10715;48.546;9.896;2023-02-14T15:34:49;56.27;;;23.97;;
21114;SDS011;10715;48.546;9.896;2023-02-14T15:37:15;45.70;;;20.37;;
21114;SDS011;10715;48.546;9.896;2023-02-14T15:39:46;55.47;;;23.60;;
21114;SDS011;10715;48.546;9.896;2023-02-14T15:42:32;45.07;;;19.57;;
21114;SDS011;10715;48.546;9.896;2023-02-14T15:47:50;39.80;;;19.53;;
21114;SDS011;10715;48.546;9.896;2023-02-14T15:50:19;38.67;;;20.33;;
21114;SDS011;10715;48.546;9.896;2023-02-14T15:52:53;45.90;;;20.53;;
21114;SDS011;10715;48.546;9.896;2023-02-14T15:55:22;50.00;;;19.80;;
21114;SDS011;10715;48.546;9.896;2023-02-14T15:57:55;37.67;;;18.80;;
21114;SDS011;10715;48.546;9.896;2023-02-14T16:00:23;67.30;;;21.23;;
21114;SDS011;10715;48.546;9.896;2023-02-14T16:02:56;70.57;;;24.20;;
21114;SDS011;10715;48.546;9.896;2023-02-14T16:05:31;45.77;;;20.27;;
21114;SDS011;10715;48.546;9.896;2023-02-14T16:07:59;39.00;;;19.53;;
21114;SDS011;10715;48.546;9.896;2023-02-14T16:10:57;38.27;;;18.70;;
21114;SDS011;10715;48.546;9.896;2023-02-14T16:13:32;50.27;;;20.40;;
21114;SDS011;10715;48.546;9.896;2023-02-14T16:16:04;41.20;;;19.90;;
21114;SDS011;10715;48.546;9.896;2023-02-14T16:18:32;41.83;;;18.83;;
21114;SDS011;10715;48.546;9.896;2023-02-14T16:23:35;43.47;;;20.90;;
21114;SDS011;10715;48.546;9.896;2023-02-14T16:26:02;51.23;;;21.60;;
21114;SDS011;10715;48.546;9.896;2023-02-14T16:28:30;51.77;;;22.07;;
21114;SDS011;10715;48.546;9.896;2023-02-14T16:30:57;43.60;;;20.37;;
21114;SDS011;10715;48.546;9.896;2023-02-14T16:33:29;49.23;;;23.93;;
21114;SDS011;10715;48.546;9.896;2023-02-14T16:36:04;50.20;;;19.10;;
21114;SDS011;10715;48.546;9.896;2023-02-14T16:38:32;68.87;;;21.60;;
21114;SDS011;10715;48.546;9.896;2023-02-14T16:41:05;65.53;;;21.13;;
21114;SDS011;10715;48.546;9.896;2023-02-14T16:43:31;43.47;;;20.90;;
21114;SDS011;10715;48.546;9.896;2023-02-14T16:45:57;88.60;;;21.57;;
21114;SDS011;10715;48.546;9.896;2023-02-14T16:48:22;47.77;;;17.90;;
21114;SDS011;10715;48.546;9.896;2023-02-14T16:50:48;49.20;;;19.10;;
21114;SDS011;10715;48.546;9.896;2023-02-14T16:53:23;36.47;;;19.50;;
21114;SDS011;10715;48.546;9.896;2023-02-14T16:55:51;39.73;;;17.77;;
21114;SDS011;10715;48.546;9.896;2023-02-14T16:58:18;40.27;;;17.10;;
21114;SDS011;10715;48.546;9.896;2023-02-14T17:00:46;108.43;;;24.93;;
21114;SDS011;10715;48.546;9.896;2023-02-14T17:03:12;67.40;;;21.60;;
21114;SDS011;10715;48.546;9.896;2023-02-14T17:05:37;61.93;;;21.10;;
21114;SDS011;10715;48.546;9.896;2023-02-14T17:08:05;65.83;;;20.63;;
21114;SDS011;10715;48.546;9.896;2023-02-14T17:10:33;64.93;;;18.90;;
21114;SDS011;10715;48.546;9.896;2023-02-14T17:12:59;50.47;;;18.00;;
21114;SDS011;10715;48.546;9.896;2023-02-14T17:15:28;45.43;;;18.00;;
21114;SDS011;10715;48.546;9.896;2023-02-14T17:17:56;35.17;;;16.70;;
21114;SDS011;10715;48.546;9.896;2023-02-14T17:20:26;64.57;;;22.10;;
21114;SDS011;10715;48.546;9.896;2023-02-14T17:22:53;47.83;;;18.63;;
21114;SDS011;10715;48.546;9.896;2023-02-14T17:25:20;58.20;;;21.07;;
21114;SDS011;10715;48.546;9.896;2023-02-14T17:27:46;49.70;;;19.93;;
21114;SDS011;10715;48.546;9.896;2023-02-14T17:30:14;59.50;;;21.20;;
21114;SDS011;10715;48.546;9.896;2023-02-14T17:32:40;48.93;;;19.37;;
21114;SDS011;10715;48.546;9.896;2023-02-14T17:35:06;51.73;;;21.07;;
21114;SDS011;10715;48.546;9.896;2023-02-14T17:37:33;56.80;;;21.40;;
21114;SDS011;10715;48.546;9.896;2023-02-14T17:39:59;50.90;;;21.13;;
21114;SDS011;10715;48.546;9.896;2023-02-14T17:42:25;47.63;;;19.70;;
21114;SDS011;10715;48.546;9.896;2023-02-14T17:44:51;61.70;;;23.07;;
21114;SDS011;10715;48.546;9.896;2023-02-14T17:47:17;54.30;;;19.80;;